Terminal Aerodrome Forecast
Issued by NWS Duluth, MN

Home | Current Version | Previous Version | Text Only | Print | Product List | Glossary On
Versions: 1 2 3 4 5 6 7 8 9 10 11 12 13 14 15 16 17 18 19 20
000
FTUS43 KDLH 161138
TAFDLH
TAF
KDLH 161138Z 1612/1712 28012KT P6SM SKC
     FM161800 25011G17KT P6SM SCT250
     FM162300 22010KT P6SM BKN200
     FM170400 21012G19KT P6SM BKN100
     FM170800 22012G20KT P6SM SCT015 BKN080=

USA.gov is the U.S. government's official web portal to all federal, state and local government web resources and services.